• Join FlightAware (Why Join?)
  • Login
  • US Flag 
11:17PM EDT


 

Airport Tracker/Info


-or-


 

Live Flight TrackerFlight Track Log ✈ SWA1798 ✈ 20-Apr-2013 ✈ KDEN - KSTL

Flight Track Log - Related Links

Times and Time Zones

All times are in EDT time to prevent confusion due to time zone crossing. See the SWA1798 flight status page for this flight to view local times or setup timezone preferences in your user account.

Time Position Orientation Groundspeed Altitude Reporting Facility
EDT Latitude Longitude Course Direction KTS MPH feet Rate Location/Type
08:06PM 39.8833 -104.6000 97° East 164 189 6,900  Level Denver TRACON
08:07PM 39.8500 -104.5167 117° Southeast 237 273 8,700 2,280 Climbing Denver TRACON
08:08PM 39.8167 -104.4167 113° Southeast 306 352 11,500 2,640 Climbing Denver TRACON
08:09PM 39.8122 -104.3992 108° East 307 353 12,100 3,180 Climbing Denver Center
08:10PM 39.8003 -104.2586 96° East 367 422 15,700 3,420 Climbing Denver Center
08:11PM 39.7961 -104.1225 92° East 378 435 19,200 3,120 Climbing Denver Center
08:12PM 39.7594 -103.9103 97° East  Level FlightAware Approximate
08:12PM 39.7922 -103.9806 92° East 405 466 22,100  Level Denver Center
08:13PM 39.7875 -103.8278 92° East 412 474 24,700 2,400 Climbing Denver Center
08:14PM 39.7836 -103.6747 92° East 416 479 27,100 2,160 Climbing Denver Center
08:15PM 39.7786 -103.5128 92° East 441 507 29,200 1,920 Climbing Denver Center
08:16PM 39.7731 -103.3461 92° East 455 524 31,100 1,920 Climbing Denver Center
08:17PM 39.7669 -103.1764 93° East 464 534 33,200 1,860 Climbing Denver Center
08:18PM 39.7619 -103.0086 92° East 462 532 34,900 1,560 Climbing Denver Center
08:19PM 39.7556 -102.8394 93° East 465 535 36,400 1,320 Climbing Denver Center
08:20PM 39.7472 -102.6433 93° East 479 551 37,700 1,020 Climbing Denver Center
08:21PM 39.7406 -102.4792 93° East 479 551 38,600 600 Climbing Denver Center
08:22PM 39.7342 -102.3114 93° East 486 559 39,000 180 Climbing Denver Center
08:23PM 39.7256 -102.1125 93° East 493 567 39,000  Level Denver Center
08:24PM 39.7181 -101.9458 93° East 487 560 39,000  Level Denver Center
08:25PM 39.7103 -101.7539 93° East 479 551 39,000  Level Denver Center
08:26PM 39.7028 -101.5894 93° East 478 550 39,000  Level Denver Center
08:27PM 39.6922 -101.3975 94° East 478 550 39,000  Level Denver Center
08:28PM 39.6833 -101.2339 94° East 477 549 39,000  Level Denver Center
08:29PM 39.6750 -101.0703 94° East 477 549 39,000  Level Denver Center
08:30PM 39.6647 -100.8769 94° East 481 554 39,000  Level Denver Center
08:31PM 39.6556 -100.7125 94° East 481 554 39,000  Level Denver Center
08:32PM 39.6439 -100.5197 94° East 480 552 39,000  Level Denver Center
08:33PM 39.6342 -100.3533 94° East 484 557 39,000  Level Denver Center
08:34PM 39.6242 -100.1872 94° East 483 556 39,000  Level Denver Center
08:35PM 39.6125 -99.9931 94° East 484 557 39,000  Level Denver Center
08:36PM 39.6014 -99.8142 95° East 487 560 39,000  Level Denver Center
08:37PM 39.5894 -99.6408 95° East 484 557 39,000  Level Denver Center
08:39PM 39.5767 -99.4342 95° East 480 552 39,000  Level Denver Center
08:40PM 39.5653 -99.2631 95° East 479 551 39,000  Level Denver Center
08:41PM 39.5531 -99.0928 95° East 476 548 39,000  Level Denver Center
08:42PM 39.5408 -98.9222 95° East 476 548 39,000  Level Denver Center
08:43PM 39.5281 -98.7531 96° East 475 547 39,000  Level Denver Center
08:44PM 39.5125 -98.5475 96° East 479 551 39,000  Level Denver Center
08:45PM 39.5003 -98.3742 95° East 482 555 39,000  Level Denver Center
08:46PM 39.4861 -98.2033 96° East 481 554 39,000  Level Denver Center
08:47PM 39.4706 -98.0161 96° East 481 554 39,000  Level Kansas City Center
08:48PM 39.4569 -97.8183 95° East 490 564 39,000  Level Kansas City Center
08:49PM 39.4431 -97.6458 96° East 484 557 39,000  Level Kansas City Center
08:50PM 39.4256 -97.4647 97° East 478 550 39,000  Level Kansas City Center
08:51PM 39.4117 -97.2997 96° East 480 552 39,000  Level Kansas City Center
08:52PM 39.3978 -97.1356 96° East 481 554 39,000  Level Kansas City Center
08:53PM 39.3814 -96.9439 96° East 480 552 39,000  Level Kansas City Center
08:54PM 39.3661 -96.7803 97° East 480 552 39,000  Level Kansas City Center
08:55PM 39.3506 -96.6153 97° East 482 555 39,000  Level Kansas City Center
08:56PM 39.3347 -96.4386 97° East 483 556 39,000  Level Kansas City Center
08:57PM 39.3194 -96.2672 97° East 481 554 39,000  Level Kansas City Center
08:58PM 39.3014 -96.0942 98° East 484 557 39,000  Level Kansas City Center
08:59PM 39.2828 -95.9019 97° East 485 558 39,000  Level Kansas City Center
09:00PM 39.2672 -95.7372 97° East 484 557 39,000  Level Kansas City Center
09:01PM 39.2481 -95.5442 97° East 485 558 39,000  Level Kansas City Center
09:02PM 39.2317 -95.3797 97° East 483 556 39,000  Level Kansas City Center
09:03PM 39.2119 -95.1953 98° East 484 557 39,000  Level Kansas City Center
09:04PM 39.1953 -95.0381 98° East 482 555 39,000  Level Kansas City Center
09:05PM 39.1778 -94.8750 98° East 481 554 39,000  Level Kansas City Center
09:06PM 39.1575 -94.6831 98° East 483 556 39,000  Level Kansas City Center
09:07PM 39.1394 -94.5203 98° East 482 555 39,000  Level Kansas City Center
09:08PM 39.1181 -94.3289 98° East 483 556 39,000  Level Kansas City Center
09:09PM 39.0994 -94.1644 98° East 484 557 39,000  Level Kansas City Center
09:10PM 39.0756 -94.0025 101° East 483 556 39,000  Level Kansas City Center
09:11PM 39.0439 -93.8139 102° East 482 555 39,000  Level Kansas City Center
09:12PM 39.0183 -93.6522 101° East 483 556 39,000  Level Kansas City Center
09:13PM 38.9906 -93.4786 102° East 481 554 39,000  Level Kansas City Center
09:14PM 38.9636 -93.3100 102° East 480 552 39,000  Level Kansas City Center
09:15PM 38.9353 -93.1408 102° East 482 555 39,000 -420 Level Kansas City Center
09:16PM 38.9064 -92.9725 102° East 480 552 38,200 -1,380 Descending Kansas City Center
09:17PM 38.8769 -92.8019 102° East 484 557 36,300 -2,580 Descending Kansas City Center
09:18PM 38.8492 -92.6344 102° East 481 554 33,200 -2,940 Descending Kansas City Center
09:19PM 38.8200 -92.4644 102° East 482 555 30,400 -2,640 Descending Kansas City Center
09:21PM 38.7908 -92.3000 103° East 479 551 27,900 -2,340 Descending Kansas City Center
09:22PM 38.7631 -92.1422 103° East 461 531 25,600 -2,220 Descending Kansas City Center
09:23PM 38.7358 -91.9925 103° East 437 503 23,400 -2,220 Descending Kansas City Center
09:24PM 38.7103 -91.8492 103° East 418 481 21,200 -2,100 Descending Kansas City Center
09:25PM 38.6906 -91.7094 100° East 404 465 19,200 -2,100 Descending Kansas City Center
09:25PM 38.6950 -91.5478 88° East 377 434 17,700 -1,980 Descending FAA TRACON SMA TRACON (SMA)
09:26PM 38.6944 -91.4964 91° East 375 432 17,100 -1,980 Descending FAA TRACON SMA TRACON (SMA)
09:26PM 38.6933 -91.4556 92° East 373 429 16,400 -2,100 Descending FAA TRACON SMA TRACON (SMA)
09:26PM 38.6939 -91.4153 89° East 371 427 15,700 -2,280 Descending FAA TRACON SMA TRACON (SMA)
09:27PM 38.6925 -91.3647 92° East 369 425 14,900 -2,280 Descending FAA TRACON SMA TRACON (SMA)
09:27PM 38.6933 -91.3250 88° East 364 419 14,200 -2,280 Descending FAA TRACON SMA TRACON (SMA)
09:27PM 38.6936 -91.2761 90° East 360 414 13,400 -2,100 Descending FAA TRACON SMA TRACON (SMA)
09:28PM 38.6925 -91.2372 92° East 356 410 12,800 -1,800 Descending FAA TRACON SMA TRACON (SMA)
09:28PM 38.6936 -91.1986 88° East 353 406 12,200 -1,980 Descending FAA TRACON SMA TRACON (SMA)
09:28PM 38.6928 -91.1511 91° East 350 403 11,500 -1,980 Descending FAA TRACON SMA TRACON (SMA)
09:29PM 38.6931 -91.1131 89° East 346 398 10,900 -1,800 Descending FAA TRACON SMA TRACON (SMA)
09:29PM 38.6956 -91.0764 85° East 341 392 10,300 -1,380 Descending FAA TRACON SMA TRACON (SMA)
09:29PM 38.6983 -91.0317 85° East 331 381 10,000 -900 Descending FAA TRACON SMA TRACON (SMA)
09:30PM 38.7047 -90.9983 76° East 316 364 9,700 -1,080 Descending FAA TRACON SMA TRACON (SMA)
09:30PM 38.7103 -90.9653 78° East 310 357 9,300 -1,500 Descending FAA TRACON SMA TRACON (SMA)
09:30PM 38.7153 -90.9242 81° East 306 352 8,700 -1,560 Descending FAA TRACON SMA TRACON (SMA)
09:31PM 38.7208 -90.8917 78° East 303 349 8,300 -1,080 Descending FAA TRACON SMA TRACON (SMA)
09:31PM 38.7261 -90.8597 78° East 300 345 8,000 -1,200 Descending FAA TRACON SMA TRACON (SMA)
09:31PM 38.7319 -90.8208 79° East 293 337 7,500 -1,380 Descending FAA TRACON SMA TRACON (SMA)
09:32PM 38.7378 -90.7900 76° East 289 333 7,100 -900 Descending FAA TRACON SMA TRACON (SMA)
09:32PM 38.7417 -90.7597 81° East 282 325 6,900 -780 Descending FAA TRACON SMA TRACON (SMA)
09:32PM 38.7467 -90.7236 80° East 270 311 6,600 -1,380 Descending FAA TRACON SMA TRACON (SMA)
09:33PM 38.7511 -90.6961 78° East 262 302 6,000 -1,800 Descending FAA TRACON SMA TRACON (SMA)
09:33PM 38.7564 -90.6686 76° East 259 298 5,400 -1,980 Descending FAA TRACON SMA TRACON (SMA)
09:33PM 38.7617 -90.6344 79° East 255 293 4,700 -1,800 Descending FAA TRACON SMA TRACON (SMA)
09:34PM 38.7658 -90.6067 79° East 255 293 4,200 -1,080 Descending FAA TRACON SMA TRACON (SMA)
09:34PM 38.7694 -90.5814 80° East 243 280 4,000 -780 Descending FAA TRACON SMA TRACON (SMA)
09:34PM 38.7733 -90.5578 78° East 226 260 3,700 -780 Descending FAA TRACON SMA TRACON (SMA)
09:35PM 38.7781 -90.5300 78° East 208 239 3,500 -840 Descending FAA TRACON SMA TRACON (SMA)
09:35PM 38.7817 -90.5050 79° East 188 216 3,100 -1,020 Descending FAA TRACON SMA TRACON (SMA)
09:35PM 38.7847 -90.4858 78° East 180 207 2,800 -1,020 Descending FAA TRACON SMA TRACON (SMA)
09:36PM 38.7872 -90.4675 80° East 174 200 2,500 -840 Descending FAA TRACON SMA TRACON (SMA)
09:36PM 38.7906 -90.4492 77° East 171 197 2,300 -300 Descending FAA TRACON SMA TRACON (SMA)
09:36PM 38.7925 -90.4306 82° East 172 198 2,300 -300 Level FAA TRACON SMA TRACON (SMA)
09:37PM 38.7886 -90.4094 103° East 163 188 2,100 -780 Descending FAA TRACON SMA TRACON (SMA)
09:37PM 38.7831 -90.3947 116° Southeast 152 175 1,800 -780 Descending FAA TRACON SMA TRACON (SMA)
09:37PM 38.7778 -90.3819 118° Southeast 137 158 1,600 -600 Descending FAA TRACON SMA TRACON (SMA)
09:38PM 38.7706 -90.3675 123° Southeast 125 144 1,400 -600 Descending FAA TRACON SMA TRACON (SMA)
09:38PM 38.7650 -90.3567 123° Southeast 120 138 1,200 -660 Descending FAA TRACON SMA TRACON (SMA)
09:38PM 38.7592 -90.3453 123° Southeast 122 140 1,000 -600 Descending FAA TRACON SMA TRACON (SMA)
09:39PM 38.7533 -90.3336 123° Southeast 124 143 800 -600 Descending FAA TRACON SMA TRACON (SMA)
09:39PM 38.7492 -90.3247 121° Southeast 125 144 600 -600 Descending FAA TRACON SMA TRACON (SMA)